createdAt,value
2018-03-31T00:00:45.829Z,16.12
2018-03-31T00:03:12.291Z,15.60
2018-03-31T00:05:38.726Z,15.82
2018-03-31T00:08:05.404Z,15.40
2018-03-31T00:10:32.735Z,15.50
2018-03-31T00:12:59.298Z,14.25
2018-03-31T00:15:26.647Z,15.40
2018-03-31T00:17:53.792Z,14.02
2018-03-31T00:20:20.599Z,14.80
2018-03-31T00:22:47.643Z,13.95
2018-03-31T00:25:15.106Z,13.65
2018-03-31T00:27:42.845Z,14.15
2018-03-31T00:30:09.520Z,14.07
2018-03-31T00:32:36.887Z,13.13
2018-03-31T00:35:03.611Z,13.75
2018-03-31T00:37:30.454Z,13.35
2018-03-31T00:39:57.406Z,12.48
2018-03-31T00:42:24.289Z,13.30
2018-03-31T00:44:51.123Z,13.13
2018-03-31T00:47:17.942Z,12.65
2018-03-31T00:49:45.164Z,13.23
2018-03-31T00:52:12.010Z,13.38
2018-03-31T00:54:39.259Z,13.00
2018-03-31T00:57:06.031Z,14.68
2018-03-31T00:59:33.662Z,12.88
2018-03-31T01:02:00.382Z,13.93
2018-03-31T01:04:27.072Z,13.95
2018-03-31T01:06:53.926Z,13.75
2018-03-31T01:09:21.793Z,14.57
2018-03-31T01:11:49.839Z,14.02
2018-03-31T01:14:16.626Z,14.13
2018-03-31T01:16:43.439Z,13.45
2018-03-31T01:19:10.236Z,13.55
2018-03-31T01:21:37.252Z,14.13
2018-03-31T01:24:03.868Z,13.38
2018-03-31T01:26:30.487Z,12.98
2018-03-31T01:28:57.099Z,14.02
2018-03-31T01:31:25.819Z,13.62
2018-03-31T01:33:52.613Z,13.73
2018-03-31T01:36:22.895Z,13.60
2018-03-31T01:41:26.431Z,14.23
2018-03-31T01:46:27.728Z,13.77
2018-03-31T01:48:54.652Z,14.13
2018-03-31T01:51:22.243Z,15.07
2018-03-31T01:53:49.465Z,14.57
2018-03-31T01:56:16.358Z,14.60
2018-03-31T01:58:42.970Z,15.93
2018-03-31T02:01:10.065Z,15.23
2018-03-31T02:03:36.734Z,15.98
2018-03-31T02:06:04.460Z,15.25
2018-03-31T02:08:31.420Z,16.10
2018-03-31T02:10:58.849Z,15.88
2018-03-31T02:13:25.937Z,17.37
2018-03-31T02:15:52.992Z,16.52
2018-03-31T02:18:19.770Z,16.75
2018-03-31T02:20:46.582Z,16.08
2018-03-31T02:23:14.218Z,15.30
2018-03-31T02:25:41.036Z,15.93
2018-03-31T02:28:08.302Z,16.05
2018-03-31T02:30:35.004Z,16.95
2018-03-31T02:33:02.801Z,16.55
2018-03-31T02:35:29.639Z,15.95
2018-03-31T02:37:56.440Z,16.48
2018-03-31T02:40:23.547Z,15.95
2018-03-31T02:42:50.279Z,15.75
2018-03-31T02:45:16.798Z,16.70
2018-03-31T02:47:44.337Z,14.25
2018-03-31T02:50:10.957Z,14.25
2018-03-31T02:52:38.070Z,14.07
2018-03-31T02:55:04.561Z,13.85
2018-03-31T02:57:31.548Z,12.30
2018-03-31T02:59:59.834Z,12.73
2018-03-31T03:02:28.580Z,13.35
2018-03-31T03:04:58.683Z,13.45
2018-03-31T03:07:26.599Z,13.73
2018-03-31T03:09:53.496Z,13.85
2018-03-31T03:12:26.891Z,13.30
2018-03-31T03:14:56.655Z,12.77
2018-03-31T03:17:23.809Z,13.93
2018-03-31T03:20:01.888Z,14.18
2018-03-31T03:22:39.715Z,14.02
2018-03-31T03:25:11.445Z,15.38
2018-03-31T03:27:43.116Z,13.90
2018-03-31T03:30:17.514Z,13.90
2018-03-31T03:32:52.082Z,13.95
2018-03-31T03:35:24.014Z,14.23
2018-03-31T03:37:57.124Z,15.32
2018-03-31T03:40:29.270Z,16.52
2018-03-31T03:43:01.764Z,17.10
2018-03-31T03:45:31.410Z,18.87
2018-03-31T03:47:59.196Z,18.83
2018-03-31T03:50:27.556Z,18.37
2018-03-31T03:53:03.867Z,16.92
2018-03-31T03:55:32.912Z,15.52
2018-03-31T03:58:02.925Z,15.43
2018-03-31T04:00:31.226Z,15.95
2018-03-31T04:02:59.623Z,16.87
2018-03-31T04:05:26.956Z,20.50
2018-03-31T04:07:55.401Z,18.52
2018-03-31T04:10:22.374Z,18.08
2018-03-31T04:12:55.428Z,18.02
2018-03-31T04:15:23.551Z,17.40
2018-03-31T04:17:51.378Z,16.30
2018-03-31T04:20:18.479Z,17.55
2018-03-31T04:22:46.354Z,16.77
2018-03-31T04:25:14.161Z,17.08
2018-03-31T04:27:40.839Z,16.05
2018-03-31T04:30:07.579Z,17.35
2018-03-31T04:32:36.524Z,17.30
2018-03-31T04:35:04.775Z,16.42
2018-03-31T04:37:34.059Z,16.70
2018-03-31T04:40:00.951Z,17.30
2018-03-31T04:42:28.228Z,16.98
2018-03-31T04:44:56.506Z,15.65
2018-03-31T04:47:23.656Z,16.55
2018-03-31T04:49:50.490Z,15.27
2018-03-31T04:52:19.412Z,16.58
2018-03-31T04:54:47.608Z,14.50
2018-03-31T04:57:14.128Z,14.82
2018-03-31T04:59:41.253Z,14.90
2018-03-31T05:02:09.756Z,17.23
2018-03-31T05:04:36.356Z,17.70
2018-03-31T05:07:04.947Z,18.15
2018-03-31T05:09:32.832Z,16.92
2018-03-31T05:12:00.247Z,16.40
2018-03-31T05:14:27.642Z,19.50
2018-03-31T05:16:55.263Z,21.08
2018-03-31T05:19:23.357Z,24.35
2018-03-31T05:21:50.917Z,22.30
2018-03-31T05:24:20.512Z,22.33
2018-03-31T05:26:49.731Z,19.85
2018-03-31T05:29:18.291Z,20.48
2018-03-31T05:31:46.478Z,19.65
2018-03-31T05:34:17.236Z,19.45
2018-03-31T05:36:44.710Z,19.83
2018-03-31T05:39:13.333Z,19.33
2018-03-31T05:41:52.886Z,19.00
2018-03-31T05:44:22.359Z,17.62
2018-03-31T05:46:49.199Z,17.52
2018-03-31T05:49:16.870Z,17.95
2018-03-31T05:54:40.105Z,18.02
2018-03-31T05:57:08.066Z,17.62
2018-03-31T05:59:37.155Z,17.70
2018-03-31T06:02:04.954Z,17.85
2018-03-31T06:04:32.720Z,18.70
2018-03-31T06:07:01.928Z,19.12
2018-03-31T06:09:29.400Z,19.17
2018-03-31T06:11:56.930Z,17.62
2018-03-31T06:14:24.580Z,18.45
2018-03-31T06:16:53.095Z,17.55
2018-03-31T06:19:23.978Z,18.23
2018-03-31T06:21:51.854Z,17.12
2018-03-31T06:24:20.727Z,18.27
2018-03-31T06:26:49.133Z,17.80
2018-03-31T06:29:17.195Z,18.48
2018-03-31T06:31:44.594Z,18.55
2018-03-31T06:34:12.127Z,17.85
2018-03-31T06:36:40.626Z,18.65
2018-03-31T06:39:08.328Z,19.37
2018-03-31T06:41:35.548Z,19.27
2018-03-31T06:44:03.320Z,20.08
2018-03-31T06:46:29.915Z,19.67
2018-03-31T06:48:57.478Z,19.12
2018-03-31T06:51:24.689Z,20.50
2018-03-31T06:53:51.663Z,21.37
2018-03-31T06:56:19.517Z,20.90
2018-03-31T06:58:46.717Z,19.45
2018-03-31T07:01:14.076Z,19.05
2018-03-31T07:03:43.836Z,19.55
2018-03-31T07:06:11.163Z,19.02
2018-03-31T07:08:40.177Z,18.98
2018-03-31T07:11:07.463Z,17.70
2018-03-31T07:13:35.266Z,18.37
2018-03-31T07:16:03.328Z,15.20
2018-03-31T07:18:31.414Z,15.40
2018-03-31T07:20:59.898Z,16.05
2018-03-31T07:23:27.100Z,16.67
2018-03-31T07:25:55.734Z,16.95
2018-03-31T07:28:23.930Z,15.68
2018-03-31T07:30:51.187Z,15.18
2018-03-31T07:33:18.524Z,16.05
2018-03-31T07:35:47.290Z,14.45
2018-03-31T07:38:25.102Z,18.10
2018-03-31T07:40:52.012Z,15.68
2018-03-31T07:43:20.130Z,15.77
2018-03-31T07:45:47.088Z,13.90
2018-03-31T07:48:14.060Z,14.15
2018-03-31T07:50:42.211Z,14.57
2018-03-31T07:53:09.359Z,15.10
2018-03-31T07:55:38.123Z,17.23
2018-03-31T07:58:04.912Z,16.15
2018-03-31T08:00:31.888Z,15.73
2018-03-31T08:02:58.716Z,14.73
2018-03-31T08:05:27.230Z,13.82
2018-03-31T08:07:54.619Z,15.30
2018-03-31T08:10:22.356Z,14.85
2018-03-31T08:12:50.397Z,12.95
2018-03-31T08:15:18.733Z,14.40
2018-03-31T08:17:46.065Z,14.10
2018-03-31T08:20:13.074Z,14.55
2018-03-31T08:22:40.336Z,15.07
2018-03-31T08:27:41.376Z,14.98
2018-03-31T08:30:07.785Z,16.30
2018-03-31T08:32:34.063Z,15.82
2018-03-31T08:35:00.414Z,14.80
2018-03-31T08:37:26.824Z,14.53
2018-03-31T08:39:54.162Z,14.30
2018-03-31T08:42:21.869Z,14.25
2018-03-31T08:44:50.148Z,14.00
2018-03-31T08:47:18.434Z,13.87
2018-03-31T08:49:45.543Z,12.95
2018-03-31T08:52:11.959Z,14.23
2018-03-31T08:54:38.401Z,14.75
2018-03-31T08:57:06.979Z,14.13
2018-03-31T08:59:33.819Z,14.17
2018-03-31T09:02:00.966Z,13.97
2018-03-31T09:04:27.658Z,14.18
2018-03-31T09:06:54.037Z,14.27
2018-03-31T09:09:22.729Z,14.23
2018-03-31T09:11:51.025Z,15.00
2018-03-31T09:14:17.471Z,13.47
2018-03-31T09:16:44.964Z,12.83
2018-03-31T09:19:14.392Z,12.43
2018-03-31T09:24:14.862Z,12.20
2018-03-31T09:26:41.850Z,10.30
2018-03-31T09:29:08.206Z,9.97
2018-03-31T09:31:34.491Z,11.00
2018-03-31T09:34:00.860Z,10.73
2018-03-31T09:36:27.505Z,11.23
2018-03-31T09:38:54.173Z,11.37
2018-03-31T09:41:20.691Z,10.83
2018-03-31T09:43:48.135Z,9.30
2018-03-31T09:46:14.870Z,10.03
2018-03-31T09:48:41.709Z,9.93
2018-03-31T09:51:08.502Z,10.10
2018-03-31T09:53:35.623Z,11.07
2018-03-31T09:56:05.729Z,9.63
2018-03-31T09:58:32.359Z,10.00
2018-03-31T10:01:03.040Z,9.40
2018-03-31T10:03:29.679Z,9.10
2018-03-31T10:05:56.424Z,9.00
2018-03-31T10:08:23.423Z,8.50
2018-03-31T10:10:50.591Z,8.80
2018-03-31T10:13:16.916Z,9.70
2018-03-31T10:15:43.599Z,9.73
2018-03-31T10:18:10.242Z,7.17
2018-03-31T10:20:36.963Z,6.70
2018-03-31T10:23:04.440Z,7.67
2018-03-31T10:25:30.799Z,7.67
2018-03-31T10:27:57.878Z,6.27
2018-03-31T10:30:25.660Z,6.33
2018-03-31T10:32:52.143Z,6.93
2018-03-31T10:35:20.896Z,8.77
2018-03-31T10:37:47.735Z,6.27
2018-03-31T10:40:14.120Z,7.50
2018-03-31T10:42:41.443Z,7.00
2018-03-31T10:45:08.321Z,6.47
2018-03-31T10:47:36.389Z,6.53
2018-03-31T10:50:03.237Z,4.03
2018-03-31T10:52:32.514Z,8.57
2018-03-31T10:55:01.375Z,4.70
2018-03-31T10:57:28.265Z,4.10
2018-03-31T10:59:55.625Z,4.23
2018-03-31T11:02:24.107Z,4.30
2018-03-31T11:04:52.245Z,3.37
2018-03-31T11:07:20.158Z,3.23
2018-03-31T11:09:46.461Z,3.00
2018-03-31T11:12:13.392Z,2.80
2018-03-31T11:14:42.100Z,2.50
2018-03-31T11:17:09.505Z,3.17
2018-03-31T11:19:36.511Z,4.00
2018-03-31T11:22:05.512Z,3.30
2018-03-31T11:24:31.734Z,5.43
2018-03-31T11:26:59.318Z,6.13
2018-03-31T11:29:26.047Z,5.00
2018-03-31T11:31:52.570Z,4.10
2018-03-31T11:34:19.105Z,6.30
2018-03-31T11:36:46.277Z,2.50
2018-03-31T11:39:14.558Z,5.47
2018-03-31T11:41:42.541Z,4.50
2018-03-31T11:44:08.785Z,5.20
2018-03-31T11:46:35.534Z,5.67
2018-03-31T11:49:03.162Z,3.43
2018-03-31T11:51:31.232Z,5.90
2018-03-31T11:53:58.425Z,4.03
2018-03-31T11:56:25.050Z,2.87
2018-03-31T11:58:51.504Z,1.80
2018-03-31T12:01:18.410Z,1.93
2018-03-31T12:03:44.720Z,3.47
2018-03-31T12:06:11.147Z,3.63
2018-03-31T12:08:37.182Z,2.80
2018-03-31T12:11:03.295Z,3.63
2018-03-31T12:13:29.460Z,2.93
2018-03-31T12:15:56.047Z,1.97
2018-03-31T12:18:22.640Z,2.70
2018-03-31T12:20:49.140Z,2.37
2018-03-31T12:23:15.791Z,1.80
2018-03-31T12:25:42.348Z,5.57
2018-03-31T12:28:08.843Z,1.50
2018-03-31T12:30:35.240Z,1.93
2018-03-31T12:33:01.540Z,1.73
2018-03-31T12:35:27.654Z,2.00
2018-03-31T12:37:54.199Z,2.53
2018-03-31T12:40:20.585Z,1.90
2018-03-31T12:42:47.299Z,7.03
2018-03-31T12:45:13.879Z,3.60
2018-03-31T12:47:40.710Z,2.33
2018-03-31T12:50:08.133Z,4.50
2018-03-31T12:52:34.883Z,5.90
2018-03-31T12:55:01.392Z,3.13
2018-03-31T12:57:27.854Z,7.13
2018-03-31T12:59:54.617Z,2.33
2018-03-31T13:02:21.218Z,3.80
2018-03-31T13:04:47.691Z,3.10
2018-03-31T13:07:13.889Z,3.03
2018-03-31T13:09:40.709Z,4.30
2018-03-31T13:12:06.887Z,3.00
2018-03-31T13:14:33.246Z,3.70
2018-03-31T13:16:59.496Z,4.43
2018-03-31T13:19:26.819Z,4.00
2018-03-31T13:21:53.400Z,2.13
2018-03-31T13:24:19.947Z,3.77
2018-03-31T13:26:46.542Z,5.77
2018-03-31T13:29:13.262Z,2.00
2018-03-31T13:31:39.960Z,1.73
2018-03-31T13:34:06.472Z,3.03
2018-03-31T13:36:35.066Z,1.70
2018-03-31T13:39:02.394Z,2.10
2018-03-31T13:41:29.118Z,3.27
2018-03-31T13:43:57.283Z,1.80
2018-03-31T13:46:24.145Z,1.93
2018-03-31T13:48:51.525Z,6.03
2018-03-31T13:51:18.760Z,1.60
2018-03-31T13:53:45.823Z,2.03
2018-03-31T13:56:12.369Z,2.50
2018-03-31T13:58:39.185Z,3.73
2018-03-31T14:01:05.846Z,4.40
2018-03-31T14:03:33.335Z,5.27
2018-03-31T14:05:59.647Z,2.83
2018-03-31T14:08:25.931Z,1.83
2018-03-31T14:10:52.894Z,2.10
2018-03-31T14:13:19.049Z,2.30
2018-03-31T14:15:45.954Z,3.13
2018-03-31T14:18:13.032Z,2.30
2018-03-31T14:20:40.359Z,2.30
2018-03-31T14:23:08.750Z,1.73
2018-03-31T14:25:35.696Z,1.80
2018-03-31T14:28:02.567Z,2.00
2018-03-31T14:30:28.997Z,6.13
2018-03-31T14:32:55.207Z,3.30
2018-03-31T14:35:21.606Z,2.10
2018-03-31T14:37:48.248Z,2.80
2018-03-31T14:40:17.734Z,3.20
2018-03-31T14:42:44.388Z,1.97
2018-03-31T14:45:11.111Z,2.50
2018-03-31T14:47:38.039Z,1.73
2018-03-31T14:50:04.789Z,2.03
2018-03-31T14:52:31.154Z,1.47
2018-03-31T14:54:57.650Z,2.03
2018-03-31T14:57:24.518Z,2.70
2018-03-31T14:59:52.660Z,3.47
2018-03-31T15:02:19.155Z,2.20
2018-03-31T15:04:45.847Z,2.23
2018-03-31T15:07:12.588Z,2.77
2018-03-31T15:09:39.319Z,2.10
2018-03-31T15:12:07.597Z,2.57
2018-03-31T15:14:34.270Z,2.30
2018-03-31T15:17:01.044Z,1.80
2018-03-31T15:19:27.980Z,2.80
2018-03-31T15:21:54.443Z,1.97
2018-03-31T15:24:21.367Z,1.93
2018-03-31T15:26:47.953Z,3.20
2018-03-31T15:29:14.234Z,4.23
2018-03-31T15:31:40.737Z,5.97
2018-03-31T15:34:08.641Z,2.07
2018-03-31T15:36:39.090Z,2.60
2018-03-31T15:41:56.021Z,3.90
2018-03-31T15:44:23.227Z,4.53
2018-03-31T15:46:50.280Z,2.50
2018-03-31T15:49:17.621Z,3.33
2018-03-31T15:51:44.802Z,2.90
2018-03-31T15:54:14.744Z,2.77
2018-03-31T15:56:43.248Z,2.43
2018-03-31T15:59:09.655Z,2.80
2018-03-31T16:01:36.771Z,3.47
2018-03-31T16:04:04.493Z,3.90
2018-03-31T16:06:30.951Z,3.43
2018-03-31T16:08:59.575Z,4.03
2018-03-31T16:11:26.220Z,4.43
2018-03-31T16:13:53.944Z,6.00
2018-03-31T16:16:21.571Z,2.90
2018-03-31T16:18:48.696Z,3.80
2018-03-31T16:21:18.422Z,3.23
2018-03-31T16:23:48.686Z,2.60
2018-03-31T16:26:16.882Z,2.17
2018-03-31T16:28:42.970Z,2.30
2018-03-31T16:31:09.831Z,2.90
2018-03-31T16:33:36.643Z,4.50
2018-03-31T16:36:03.667Z,3.83
2018-03-31T16:38:31.152Z,7.13
2018-03-31T16:41:02.045Z,7.47
2018-03-31T16:43:30.179Z,4.00
2018-03-31T16:45:57.598Z,3.07
2018-03-31T16:48:24.227Z,2.90
2018-03-31T16:50:51.741Z,3.10
2018-03-31T16:53:18.933Z,2.87
2018-03-31T16:55:45.468Z,2.93
2018-03-31T16:58:12.534Z,2.83
2018-03-31T17:00:39.744Z,3.00
2018-03-31T17:03:07.473Z,3.17
2018-03-31T17:05:34.331Z,2.53
2018-03-31T17:08:01.787Z,3.20
2018-03-31T17:10:28.535Z,2.70
2018-03-31T17:12:57.087Z,5.00
2018-03-31T17:15:26.637Z,10.67
2018-03-31T17:17:55.538Z,7.40
2018-03-31T17:20:22.205Z,3.87
2018-03-31T17:22:49.127Z,3.30
2018-03-31T17:25:15.889Z,5.17
2018-03-31T17:27:43.056Z,4.33
2018-03-31T17:30:09.925Z,4.00
2018-03-31T17:32:36.837Z,4.00
2018-03-31T17:35:03.530Z,5.50
2018-03-31T17:37:30.254Z,3.73
2018-03-31T17:39:57.590Z,3.67
2018-03-31T17:42:24.527Z,4.70
2018-03-31T17:44:51.563Z,4.73
2018-03-31T17:47:18.312Z,11.40
2018-03-31T17:49:45.183Z,7.47
2018-03-31T17:52:12.129Z,5.73
2018-03-31T17:54:39.324Z,7.30
2018-03-31T17:57:06.212Z,6.47
2018-03-31T17:59:32.526Z,8.47
2018-03-31T18:01:58.835Z,12.77
2018-03-31T18:04:25.202Z,11.50
2018-03-31T18:06:52.022Z,10.77
2018-03-31T18:09:19.372Z,7.13
2018-03-31T18:11:45.756Z,7.90
2018-03-31T18:14:12.113Z,8.37
2018-03-31T18:16:39.609Z,9.20
2018-03-31T18:19:06.266Z,8.73
2018-03-31T18:21:32.890Z,9.83
2018-03-31T18:23:59.676Z,8.60
2018-03-31T18:26:26.554Z,9.07
2018-03-31T18:28:53.046Z,8.70
2018-03-31T18:31:20.147Z,9.90
2018-03-31T18:33:47.030Z,9.13
2018-03-31T18:36:13.646Z,10.23
2018-03-31T18:38:40.323Z,10.03
2018-03-31T18:41:08.523Z,9.57
2018-03-31T18:43:36.272Z,10.00
2018-03-31T18:46:03.232Z,10.57
2018-03-31T18:48:31.179Z,9.77
2018-03-31T18:50:58.926Z,9.77
2018-03-31T18:53:25.212Z,9.63
2018-03-31T18:55:52.536Z,10.63
2018-03-31T18:58:19.188Z,11.60
2018-03-31T19:00:45.624Z,10.43
2018-03-31T19:03:12.063Z,9.97
2018-03-31T19:05:38.745Z,10.23
2018-03-31T19:08:06.559Z,10.40
2018-03-31T19:10:34.448Z,9.80
2018-03-31T19:13:01.218Z,9.93
2018-03-31T19:15:28.569Z,9.70
2018-03-31T19:17:55.983Z,10.60
2018-03-31T19:20:23.204Z,10.63
2018-03-31T19:22:50.934Z,10.10
2018-03-31T19:25:23.153Z,10.60
2018-03-31T19:27:49.767Z,11.97
2018-03-31T19:30:17.745Z,10.20
2018-03-31T19:33:03.190Z,10.97
2018-03-31T19:35:52.222Z,12.23
2018-03-31T19:38:23.875Z,11.23
2018-03-31T19:40:57.820Z,12.20
2018-03-31T19:43:25.495Z,12.37
2018-03-31T19:45:52.296Z,12.93
2018-03-31T19:48:18.539Z,11.73
2018-03-31T19:50:44.634Z,13.37
2018-03-31T19:53:12.189Z,13.63
2018-03-31T19:55:39.059Z,12.40
2018-03-31T19:58:06.427Z,13.00
2018-03-31T20:00:33.261Z,14.73
2018-03-31T20:03:00.944Z,13.83
2018-03-31T20:05:27.480Z,13.07
2018-03-31T20:07:54.043Z,14.47
2018-03-31T20:10:20.733Z,14.50
2018-03-31T20:12:47.467Z,14.30
2018-03-31T20:15:14.452Z,13.03
2018-03-31T20:17:41.545Z,11.93
2018-03-31T20:20:09.425Z,11.50
2018-03-31T20:22:36.639Z,10.27
2018-03-31T20:25:11.966Z,9.67
2018-03-31T20:27:45.951Z,9.47
2018-03-31T20:30:15.616Z,8.20
2018-03-31T20:32:43.825Z,8.77
2018-03-31T20:35:10.730Z,8.67
2018-03-31T20:37:38.767Z,8.87
2018-03-31T20:40:06.918Z,9.30
2018-03-31T20:42:35.962Z,7.33
2018-03-31T20:45:08.377Z,8.33
2018-03-31T20:47:42.210Z,8.40
2018-03-31T20:50:10.479Z,7.03
2018-03-31T20:52:39.658Z,6.93
2018-03-31T20:55:09.454Z,8.63
2018-03-31T20:57:39.082Z,10.03
2018-03-31T21:00:14.674Z,9.30
2018-03-31T21:02:48.446Z,9.50
2018-03-31T21:05:18.409Z,8.53
2018-03-31T21:07:55.899Z,8.93
2018-03-31T21:10:40.838Z,7.00
2018-03-31T21:13:10.194Z,6.43
2018-03-31T21:15:40.000Z,6.62
2018-03-31T21:18:19.163Z,8.37
2018-03-31T21:23:36.574Z,7.83
2018-03-31T21:26:04.752Z,6.67
2018-03-31T21:28:38.684Z,7.50
2018-03-31T21:31:08.088Z,7.73
2018-03-31T21:33:39.084Z,7.73
2018-03-31T21:36:06.425Z,8.40
2018-03-31T21:38:39.875Z,7.60
2018-03-31T21:41:09.196Z,7.43
2018-03-31T21:43:38.991Z,6.10
2018-03-31T21:48:54.194Z,7.33
2018-03-31T21:52:09.130Z,7.97
2018-03-31T21:54:36.933Z,7.43
2018-03-31T21:57:07.156Z,7.83
2018-03-31T21:59:42.838Z,7.80
2018-03-31T22:02:38.728Z,7.70
2018-03-31T22:07:44.834Z,6.68
2018-03-31T22:10:12.634Z,7.22
2018-03-31T22:12:43.737Z,5.32
2018-03-31T22:18:26.030Z,6.70
2018-03-31T22:23:44.457Z,5.78
2018-03-31T22:26:15.190Z,5.10
2018-03-31T22:31:18.491Z,5.15
2018-03-31T22:33:48.780Z,5.07
2018-03-31T22:36:17.295Z,5.20
2018-03-31T22:38:54.661Z,5.05
2018-03-31T22:41:24.423Z,5.05
2018-03-31T22:43:54.472Z,4.80
2018-03-31T22:46:32.353Z,5.78
2018-03-31T22:49:03.378Z,5.13
2018-03-31T22:54:09.652Z,11.23
2018-03-31T22:56:39.333Z,39.75
2018-03-31T22:59:07.008Z,17.40
2018-03-31T23:01:42.175Z,12.15
2018-03-31T23:04:11.613Z,9.82
2018-03-31T23:06:42.009Z,6.43
2018-03-31T23:09:10.920Z,5.47
2018-03-31T23:11:42.822Z,4.10
2018-03-31T23:17:20.452Z,4.93
2018-03-31T23:19:55.327Z,4.73
2018-03-31T23:22:24.481Z,5.17
2018-03-31T23:35:21.110Z,5.43
2018-03-31T23:37:54.789Z,4.10
